Time;durP1;ratioP1;P1;durP2;ratioP2;P2;SDS_P1;SDS_P2;PMS_P1;PMS_P2;Temp;Humidity;BMP_temperature;BMP_pressure;BME280_temperature;BME280_humidity;BME280_pressure;Samples;Min_cycle;Max_cycle;Signal;HPM_P1;HPM_P2
2023/12/25 00:00:31;;;;;;;6.50;3.28;;;;;;;;;;5022442;28;20001;-78
2023/12/25 00:02:56;;;;;;;6.07;3.92;;;;;;;;;;5005184;28;20040;-77
2023/12/25 00:05:22;;;;;;;5.15;3.67;;;;;;;;;;5009221;28;20120;-78
2023/12/25 00:07:47;;;;;;;;;;;;;;;;;;5030517;28;20049;-78
2023/12/25 00:10:13;;;;;;;5.97;3.40;;;;;;;;;;5029904;28;19921;-78
2023/12/25 00:12:38;;;;;;;5.10;3.55;;;;;;;;;;5024390;28;20511;-78
2023/12/25 00:15:04;;;;;;;6.22;3.50;;;;;;;;;;4997963;28;20549;-78
2023/12/25 00:17:31;;;;;;;4.78;3.17;;;;;;;;;;5009711;28;20671;-78
2023/12/25 00:19:56;;;;;;;6.00;3.70;;;;;;;;;;5004867;28;20040;-78
2023/12/25 00:22:22;;;;;;;;;;;;;;;;;;5011819;28;20049;-78
2023/12/25 00:24:47;;;;;;;8.98;3.50;;;;;;;;;;5032406;28;19954;-79
2023/12/25 00:27:13;;;;;;;6.47;3.35;;;;;;;;;;4998839;28;20033;-79
2023/12/25 00:29:38;;;;;;;5.53;3.35;;;;;;;;;;4991385;28;20029;-77
2023/12/25 00:32:04;;;;;;;4.03;2.90;;;;;;;;;;5019503;28;20040;-79
2023/12/25 00:34:30;;;;;;;;;;;;;;;;;;4991798;28;20026;-80
2023/12/25 00:36:55;;;;;;;5.15;2.70;;;;;;;;;;5011811;28;20311;-77
2023/12/25 00:39:20;;;;;;;3.50;2.70;;;;;;;;;;5007860;28;20077;-77
2023/12/25 00:41:46;;;;;;;5.88;3.20;;;;;;;;;;4987593;28;20038;-77
2023/12/25 00:44:11;;;;;;;;;;;;;;;;;;5008464;28;20040;-77
2023/12/25 00:46:37;;;;;;;5.68;2.85;;;;;;;;;;5013759;28;19920;-77
2023/12/25 00:49:03;;;;;;;3.92;2.50;;;;;;;;;;5001315;28;20113;-78
2023/12/25 00:51:28;;;;;;;;;;;;;;;;;;5010779;28;20033;-78
2023/12/25 00:53:54;;;;;;;8.02;2.80;;;;;;;;;;4998178;28;19916;-78
2023/12/25 00:56:19;;;;;;;;;;;;;;;;;;5014410;28;20037;-78
2023/12/25 00:58:44;;;;;;;4.65;2.90;;;;;;;;;;5025743;28;20003;-78
2023/12/25 01:01:10;;;;;;;4.90;2.78;;;;;;;;;;5011132;28;20423;-78
2023/12/25 01:03:36;;;;;;;4.00;2.28;;;;;;;;;;4997305;28;20044;-76
2023/12/25 01:06:03;;;;;;;7.28;4.80;;;;;;;;;;4997203;28;20026;-77
2023/12/25 01:08:28;;;;;;;5.55;2.67;;;;;;;;;;5000540;28;20030;-77
2023/12/25 01:10:54;;;;;;;;;;;;;;;;;;5011442;28;20053;-77
2023/12/25 01:13:20;;;;;;;3.88;2.60;;;;;;;;;;5026511;28;20016;-78
2023/12/25 01:15:45;;;;;;;3.90;2.67;;;;;;;;;;5010540;28;20132;-79
2023/12/25 01:18:10;;;;;;;;;;;;;;;;;;5014243;28;20030;-77
2023/12/25 01:20:54;;;;;;;4.63;2.78;;;;;;;;;;5031028;28;20063;-78
2023/12/25 01:23:20;;;;;;;;;;;;;;;;;;5013603;28;20093;-78
2023/12/25 01:25:45;;;;;;;4.18;2.60;;;;;;;;;;5004036;28;19920;-77
2023/12/25 01:28:11;;;;;;;3.83;2.47;;;;;;;;;;5013353;28;20029;-78
2023/12/25 01:30:36;;;;;;;;;;;;;;;;;;4986445;28;20075;-78
2023/12/25 01:33:02;;;;;;;3.67;2.63;;;;;;;;;;5025827;28;19963;-77
2023/12/25 01:35:27;;;;;;;4.07;2.80;;;;;;;;;;5011291;28;20385;-77
2023/12/25 01:37:53;;;;;;;4.55;2.75;;;;;;;;;;5008305;28;20491;-78
2023/12/25 01:40:18;;;;;;;4.35;2.72;;;;;;;;;;5005604;28;20025;-78
2023/12/25 01:42:45;;;;;;;5.82;3.08;;;;;;;;;;4990820;28;20048;-77
2023/12/25 01:45:12;;;;;;;3.72;2.83;;;;;;;;;;4996815;28;20040;-77
2023/12/25 01:47:37;;;;;;;;;;;;;;;;;;5009655;28;20038;-78
2023/12/25 01:50:03;;;;;;;4.07;2.40;;;;;;;;;;5030858;28;19909;-78
2023/12/25 01:52:29;;;;;;;4.35;2.67;;;;;;;;;;4997034;28;20042;-77
2023/12/25 01:54:54;;;;;;;;;;;;;;;;;;4968837;28;20052;-77
2023/12/25 01:57:20;;;;;;;4.95;2.78;;;;;;;;;;5031400;28;19952;-77
2023/12/25 01:59:45;;;;;;;;;;;;;;;;;;4985380;28;20061;-77
2023/12/25 02:02:10;;;;;;;6.53;2.60;;;;;;;;;;5012816;28;19923;-77
2023/12/25 02:04:36;;;;;;;3.90;2.50;;;;;;;;;;5001756;28;20017;-77
2023/12/25 02:07:01;;;;;;;;;;;;;;;;;;4997643;28;20038;-77
2023/12/25 02:09:27;;;;;;;3.80;2.38;;;;;;;;;;4985232;28;19925;-76
2023/12/25 02:11:53;;;;;;;5.20;2.33;;;;;;;;;;4987994;28;20075;-78
2023/12/25 02:14:18;;;;;;;;;;;;;;;;;;5012608;28;20029;-78
2023/12/25 02:16:43;;;;;;;4.85;2.60;;;;;;;;;;5021402;28;20000;-78
2023/12/25 02:19:09;;;;;;;;;;;;;;;;;;5012976;28;20105;-78
2023/12/25 02:21:34;;;;;;;3.90;2.55;;;;;;;;;;5013231;28;19924;-77
2023/12/25 02:24:00;;;;;;;4.13;2.30;;;;;;;;;;4995968;28;20902;-78
2023/12/25 02:26:43;;;;;;;3.72;2.42;;;;;;;;;;5021588;28;20056;-78
2023/12/25 02:29:09;;;;;;;;;;;;;;;;;;4993551;28;20037;-76
2023/12/25 02:31:34;;;;;;;3.60;2.40;;;;;;;;;;5025773;28;19915;-77
2023/12/25 02:34:02;;;;;;;4.07;2.50;;;;;;;;;;4995876;28;20116;-78
2023/12/25 02:36:27;;;;;;;;;;;;;;;;;;5009670;28;20113;-78
2023/12/25 02:38:52;;;;;;;4.88;2.28;;;;;;;;;;5026288;28;19935;-78
2023/12/25 02:41:18;;;;;;;3.40;2.28;;;;;;;;;;5016321;28;20026;-78
2023/12/25 02:43:44;;;;;;;;;;;;;;;;;;5027191;28;20025;-78
2023/12/25 02:46:09;;;;;;;4.03;2.38;;;;;;;;;;5009641;28;20427;-78
2023/12/25 02:48:35;;;;;;;;;;;;;;;;;;5014981;28;20033;-78
2023/12/25 02:51:00;;;;;;;4.10;2.38;;;;;;;;;;5028290;28;19964;-78
2023/12/25 02:53:27;;;;;;;3.42;2.30;;;;;;;;;;5028370;28;20411;-78
2023/12/25 02:55:52;;;;;;;;;;;;;;;;;;5009215;28;20040;-78
2023/12/25 02:58:17;;;;;;;3.53;2.38;;;;;;;;;;5015664;28;19913;-78
2023/12/25 03:00:43;;;;;;;;;;;;;;;;;;5033773;28;20404;-78
2023/12/25 03:03:08;;;;;;;4.07;2.40;;;;;;;;;;5004071;28;19920;-77
2023/12/25 03:05:34;;;;;;;3.50;2.28;;;;;;;;;;4999004;28;20423;-78
2023/12/25 03:07:59;;;;;;;3.83;2.47;;;;;;;;;;4996035;28;20108;-77
2023/12/25 03:10:25;;;;;;;5.05;2.60;;;;;;;;;;5016184;28;20636;-78
2023/12/25 03:12:50;;;;;;;;;;;;;;;;;;5004067;28;20095;-78
2023/12/25 03:15:16;;;;;;;3.95;2.28;;;;;;;;;;5015701;28;19909;-78
2023/12/25 03:17:42;;;;;;;;;;;;;;;;;;5014640;28;20040;-78
2023/12/25 03:20:08;;;;;;;3.63;2.30;;;;;;;;;;5015676;28;19916;-78
2023/12/25 03:22:33;;;;;;;;;;;;;;;;;;5015307;28;20045;-78
2023/12/25 03:24:59;;;;;;;4.18;2.60;;;;;;;;;;5016300;28;19909;-78
2023/12/25 03:27:24;;;;;;;;;;;;;;;;;;4999522;28;20034;-78
2023/12/25 03:29:50;;;;;;;4.65;3.00;;;;;;;;;;4999292;28;19951;-78
2023/12/25 03:32:19;;;;;;;4.95;2.70;;;;;;;;;;4988200;28;20033;-78
2023/12/25 03:34:47;;;;;;;3.55;2.53;;;;;;;;;;4988413;28;20029;-78
2023/12/25 03:37:13;;;;;;;4.57;2.83;;;;;;;;;;5031369;28;20029;-78
2023/12/25 03:39:38;;;;;;;;;;;;;;;;;;5015729;28;20361;-78
2023/12/25 03:42:05;;;;;;;3.67;2.45;;;;;;;;;;5015357;28;19928;-78
2023/12/25 03:44:30;;;;;;;;;;;;;;;;;;5009576;28;20830;-78
2023/12/25 03:46:56;;;;;;;4.65;3.38;;;;;;;;;;5023528;28;20011;-78
2023/12/25 03:49:21;;;;;;;5.43;3.33;;;;;;;;;;5016965;28;20023;-78
2023/12/25 03:51:48;;;;;;;5.25;2.95;;;;;;;;;;5032333;28;20112;-78
2023/12/25 03:54:13;;;;;;;;;;;;;;;;;;5015214;28;20115;-78
2023/12/25 03:56:39;;;;;;;5.20;3.10;;;;;;;;;;5022913;28;19920;-77
2023/12/25 03:59:04;;;;;;;4.30;3.00;;;;;;;;;;5017686;28;20082;-78
2023/12/25 04:01:48;;;;;;;4.35;2.95;;;;;;;;;;5029882;28;20060;-78
2023/12/25 04:04:14;;;;;;;;;;;;;;;;;;5015157;28;20037;-78
2023/12/25 04:06:39;;;;;;;3.78;2.60;;;;;;;;;;5022604;28;19916;-77
2023/12/25 04:09:23;;;;;;;4.10;2.67;;;;;;;;;;5031719;28;20060;-76
2023/12/25 04:11:49;;;;;;;;;;;;;;;;;;5011249;28;20757;-78
2023/12/25 04:14:14;;;;;;;4.95;2.70;;;;;;;;;;5032058;28;19920;-78
2023/12/25 04:16:40;;;;;;;4.60;2.90;;;;;;;;;;5007476;28;20091;-77
2023/12/25 04:19:05;;;;;;;5.07;3.45;;;;;;;;;;4981273;28;20412;-78
2023/12/25 04:21:31;;;;;;;4.45;2.90;;;;;;;;;;4990474;28;20095;-78
2023/12/25 04:23:56;;;;;;;6.15;3.22;;;;;;;;;;5004286;28;20057;-78
2023/12/25 04:26:22;;;;;;;3.88;2.83;;;;;;;;;;5013943;28;20111;-78
2023/12/25 04:28:48;;;;;;;4.90;2.92;;;;;;;;;;4997908;28;20542;-78
2023/12/25 04:31:14;;;;;;;4.75;3.00;;;;;;;;;;4992411;28;20037;-79
2023/12/25 04:33:39;;;;;;;;;;;;;;;;;;5014462;28;20099;-78
2023/12/25 04:36:08;;;;;;;3.97;2.90;;;;;;;;;;5013811;28;19917;-79
2023/12/25 04:38:34;;;;;;;3.95;2.88;;;;;;;;;;5014036;28;20024;-78
2023/12/25 04:40:59;;;;;;;;;;;;;;;;;;4996005;28;20029;-79
2023/12/25 04:43:25;;;;;;;5.97;3.33;;;;;;;;;;5014187;28;19924;-78
2023/12/25 04:45:52;;;;;;;4.72;3.05;;;;;;;;;;4995046;28;20050;-77
2023/12/25 04:48:17;;;;;;;;;;;;;;;;;;5009625;28;20193;-79
2023/12/25 04:50:43;;;;;;;4.35;2.88;;;;;;;;;;5013701;28;19952;-77
2023/12/25 04:53:08;;;;;;;;;;;;;;;;;;5011879;28;20104;-78
2023/12/25 04:55:34;;;;;;;4.93;3.20;;;;;;;;;;5003470;28;20338;-77
2023/12/25 04:58:01;;;;;;;4.20;2.70;;;;;;;;;;5011411;28;20788;-77
2023/12/25 05:00:28;;;;;;;4.68;3.00;;;;;;;;;;5003899;28;20037;-78
2023/12/25 05:02:53;;;;;;;;;;;;;;;;;;4999372;28;20373;-78
2023/12/25 05:05:19;;;;;;;4.28;2.97;;;;;;;;;;5021848;28;19913;-77
2023/12/25 05:07:45;;;;;;;4.38;2.92;;;;;;;;;;5004091;28;20035;-78
2023/12/25 05:10:11;;;;;;;4.82;2.80;;;;;;;;;;4995699;28;20474;-78
2023/12/25 05:12:36;;;;;;;;;;;;;;;;;;4997377;28;20049;-77
2023/12/25 05:15:02;;;;;;;4.75;3.20;;;;;;;;;;5026018;28;19995;-77
2023/12/25 05:17:27;;;;;;;;;;;;;;;;;;5013561;28;20124;-77
2023/12/25 05:19:53;;;;;;;4.60;2.90;;;;;;;;;;5008781;28;19921;-78
2023/12/25 05:22:18;;;;;;;;;;;;;;;;;;4997740;28;20072;-78
2023/12/25 05:24:44;;;;;;;4.28;2.78;;;;;;;;;;5031124;28;19936;-78
2023/12/25 05:27:09;;;;;;;4.32;2.78;;;;;;;;;;5031837;28;20144;-78
2023/12/25 05:29:35;;;;;;;4.43;2.53;;;;;;;;;;4996746;28;20045;-78
2023/12/25 05:32:00;;;;;;;;;;;;;;;;;;5011036;28;20052;-78
2023/12/25 05:34:29;;;;;;;4.60;2.75;;;;;;;;;;5029117;28;19913;-77
2023/12/25 05:36:54;;;;;;;3.92;2.50;;;;;;;;;;5031333;28;20515;-77
2023/12/25 05:39:20;;;;;;;;;;;;;;;;;;4997336;28;20179;-77
2023/12/25 05:41:45;;;;;;;4.10;2.40;;;;;;;;;;5029389;28;19917;-77
2023/12/25 05:44:10;;;;;;;4.95;2.35;;;;;;;;;;5011868;28;20040;-77
2023/12/25 05:46:36;;;;;;;2.70;1.80;;;;;;;;;;5007411;28;20518;-77
2023/12/25 05:49:02;;;;;;;4.68;2.67;;;;;;;;;;5029828;28;20025;-77
2023/12/25 05:51:27;;;;;;;3.50;2.28;;;;;;;;;;5025280;28;20041;-77
2023/12/25 05:54:11;;;;;;;4.70;2.60;;;;;;;;;;5016257;28;20057;-77
2023/12/25 05:56:37;;;;;;;;;;;;;;;;;;5000310;28;20029;-78
2023/12/25 05:59:03;;;;;;;4.22;2.75;;;;;;;;;;5013338;28;20391;-77
2023/12/25 06:01:28;;;;;;;3.80;2.50;;;;;;;;;;5013425;28;20073;-77
2023/12/25 06:03:54;;;;;;;;;;;;;;;;;;4994936;28;20053;-78
2023/12/25 06:06:19;;;;;;;4.68;2.67;;;;;;;;;;5027462;28;19913;-78
2023/12/25 06:08:45;;;;;;;;;;;;;;;;;;5031273;28;20028;-77
2023/12/25 06:11:10;;;;;;;4.32;2.63;;;;;;;;;;5032784;28;20380;-78
2023/12/25 06:13:36;;;;;;;5.05;2.70;;;;;;;;;;5016744;28;20030;-77
2023/12/25 06:16:01;;;;;;;5.13;2.58;;;;;;;;;;4997353;28;20037;-78
2023/12/25 06:18:27;;;;;;;4.22;2.67;;;;;;;;;;5009408;28;20065;-78
2023/12/25 06:20:52;;;;;;;;;;;;;;;;;;5014600;28;20056;-78
2023/12/25 06:23:18;;;;;;;4.85;2.70;;;;;;;;;;5034449;28;19916;-77
2023/12/25 06:25:43;;;;;;;4.47;2.35;;;;;;;;;;5016255;28;20054;-77
2023/12/25 06:28:09;;;;;;;3.65;2.60;;;;;;;;;;5010342;28;20480;-79
2023/12/25 06:30:34;;;;;;;4.00;2.60;;;;;;;;;;5034154;28;20025;-77
2023/12/25 06:33:00;;;;;;;5.20;2.90;;;;;;;;;;5033703;28;20033;-78
2023/12/25 06:35:25;;;;;;;4.53;2.70;;;;;;;;;;5042154;28;20034;-77
2023/12/25 06:37:50;;;;;;;;;;;;;;;;;;5034098;28;20060;-78
2023/12/25 06:40:34;;;;;;;4.55;2.67;;;;;;;;;;5029682;28;20295;-79
2023/12/25 06:43:00;;;;;;;;;;;;;;;;;;5014225;28;20033;-77
2023/12/25 06:45:25;;;;;;;4.90;2.80;;;;;;;;;;5033567;28;20012;-77
2023/12/25 06:47:52;;;;;;;4.68;3.35;;;;;;;;;;5016169;28;20385;-79
2023/12/25 06:50:18;;;;;;;4.88;2.70;;;;;;;;;;5030167;28;20040;-78
2023/12/25 06:52:43;;;;;;;;;;;;;;;;;;5010768;28;20034;-79
2023/12/25 06:55:09;;;;;;;6.28;3.30;;;;;;;;;;5020559;28;19916;-78
2023/12/25 06:57:35;;;;;;;;;;;;;;;;;;5033754;28;20099;-78
2023/12/25 07:00:00;;;;;;;4.47;2.88;;;;;;;;;;5011150;28;20371;-77
2023/12/25 07:02:25;;;;;;;4.68;3.38;;;;;;;;;;5008232;28;20026;-79
2023/12/25 07:04:51;;;;;;;5.65;3.10;;;;;;;;;;5004749;28;20017;-78
2023/12/25 07:07:17;;;;;;;5.85;3.45;;;;;;;;;;5006563;28;20485;-78
2023/12/25 07:23:35;;;;;;;7.40;3.60;;;;;;;;;;5017800;28;20065;-79
2023/12/25 07:26:01;;;;;;;;;;;;;;;;;;5022828;28;20026;-77
2023/12/25 07:28:26;;;;;;;5.60;2.60;;;;;;;;;;5017821;28;20387;-78
2023/12/25 07:30:52;;;;;;;;;;;;;;;;;;5022704;28;20026;-79
2023/12/25 07:33:17;;;;;;;5.32;3.08;;;;;;;;;;5026193;28;19924;-79
2023/12/25 07:35:43;;;;;;;3.88;2.55;;;;;;;;;;5015514;28;20041;-77
2023/12/25 07:38:08;;;;;;;;;;;;;;;;;;5025701;28;20428;-78
2023/12/25 07:40:34;;;;;;;5.88;2.33;;;;;;;;;;5031128;28;19963;-78
2023/12/25 07:42:59;;;;;;;;;;;;;;;;;;4992431;28;20029;-78
2023/12/25 07:45:25;;;;;;;5.90;2.67;;;;;;;;;;5025262;28;19921;-78
2023/12/25 07:47:50;;;;;;;;;;;;;;;;;;5019554;28;20096;-78
2023/12/25 07:50:15;;;;;;;6.00;2.72;;;;;;;;;;5025486;28;19912;-78
2023/12/25 07:52:41;;;;;;;;;;;;;;;;;;5032934;28;20030;-78
2023/12/25 07:55:06;;;;;;;6.13;2.60;;;;;;;;;;5027519;28;19913;-76
2023/12/25 07:57:32;;;;;;;;;;;;;;;;;;5025686;28;20021;-76
2023/12/25 07:59:57;;;;;;;5.70;2.53;;;;;;;;;;5015227;28;19913;-78
2023/12/25 08:02:24;;;;;;;6.07;2.53;;;;;;;;;;5032350;28;20033;-78
2023/12/25 08:04:49;;;;;;;3.50;2.25;;;;;;;;;;5029038;28;20029;-79
2023/12/25 08:07:14;;;;;;;;;;;;;;;;;;5007999;28;20377;-78
2023/12/25 08:09:40;;;;;;;7.05;2.50;;;;;;;;;;5031850;28;19935;-79
2023/12/25 08:12:06;;;;;;;6.20;3.10;;;;;;;;;;4982345;28;20049;-78
2023/12/25 08:14:31;;;;;;;4.72;2.58;;;;;;;;;;5021278;28;20029;-78
2023/12/25 08:16:56;;;;;;;;;;;;;;;;;;5001954;28;20419;-78
2023/12/25 08:19:22;;;;;;;6.07;2.60;;;;;;;;;;5012386;28;20259;-78
2023/12/25 08:21:47;;;;;;;6.07;2.85;;;;;;;;;;5006341;28;20041;-79
2023/12/25 08:24:13;;;;;;;;;;;;;;;;;;5013689;28;20029;-76
2023/12/25 08:26:38;;;;;;;4.53;2.70;;;;;;;;;;5006010;28;19913;-77
2023/12/25 08:29:04;;;;;;;5.60;2.55;;;;;;;;;;5031823;28;20025;-78
2023/12/25 08:31:30;;;;;;;;;;;;;;;;;;5008773;28;20400;-78
2023/12/25 08:33:55;;;;;;;4.03;2.22;;;;;;;;;;5029206;28;20004;-78
2023/12/25 08:36:20;;;;;;;3.70;2.30;;;;;;;;;;5031723;28;20032;-77
2023/12/25 08:38:46;;;;;;;;;;;;;;;;;;5014096;28;20091;-78
2023/12/25 08:41:11;;;;;;;5.50;3.00;;;;;;;;;;5031344;28;20291;-79
2023/12/25 08:43:37;;;;;;;6.40;3.50;;;;;;;;;;5008301;28;20021;-79
2023/12/25 08:46:02;;;;;;;4.88;2.90;;;;;;;;;;5013866;28;20040;-78
2023/12/25 08:48:28;;;;;;;5.18;3.00;;;;;;;;;;5013611;28;20048;-78
2023/12/25 08:50:53;;;;;;;5.72;3.08;;;;;;;;;;5008636;28;20379;-77
2023/12/25 08:53:19;;;;;;;5.95;2.65;;;;;;;;;;5013226;28;20037;-77
2023/12/25 08:55:44;;;;;;;;;;;;;;;;;;5031481;28;20525;-77
2023/12/25 08:58:10;;;;;;;4.38;2.45;;;;;;;;;;5028292;28;19963;-78
2023/12/25 09:00:35;;;;;;;5.03;2.40;;;;;;;;;;5004565;28;20534;-78
2023/12/25 09:03:01;;;;;;;;;;;;;;;;;;4997961;28;20041;-77
2023/12/25 09:05:26;;;;;;;3.70;2.38;;;;;;;;;;5031584;28;20027;-77
2023/12/25 09:07:52;;;;;;;4.15;2.40;;;;;;;;;;5007311;28;20025;-78
2023/12/25 09:10:17;;;;;;;3.70;2.22;;;;;;;;;;5024045;28;20392;-79
2023/12/25 09:12:43;;;;;;;4.22;2.40;;;;;;;;;;5010525;28;20040;-79
2023/12/25 09:15:08;;;;;;;3.50;2.13;;;;;;;;;;5004758;28;20064;-78
2023/12/25 09:17:34;;;;;;;4.50;2.97;;;;;;;;;;5021362;28;20107;-79
2023/12/25 09:19:59;;;;;;;3.85;2.30;;;;;;;;;;5015511;28;20030;-79
2023/12/25 09:22:27;;;;;;;5.72;2.88;;;;;;;;;;5028210;28;20076;-76
2023/12/25 09:24:52;;;;;;;5.90;3.13;;;;;;;;;;4990215;28;20033;-79
2023/12/25 09:27:18;;;;;;;;;;;;;;;;;;5028682;28;20033;-78
2023/12/25 09:29:43;;;;;;;6.15;3.00;;;;;;;;;;4999526;28;19909;-78
2023/12/25 09:32:09;;;;;;;4.68;2.65;;;;;;;;;;5010687;28;20025;-78
2023/12/25 09:34:34;;;;;;;;;;;;;;;;;;4990195;28;20033;-77
2023/12/25 09:36:59;;;;;;;5.43;3.03;;;;;;;;;;5012694;28;19913;-78
2023/12/25 09:39:25;;;;;;;4.53;2.97;;;;;;;;;;4973833;28;20029;-78
2023/12/25 09:41:50;;;;;;;;;;;;;;;;;;5024062;28;20033;-79
2023/12/25 09:44:16;;;;;;;6.00;2.75;;;;;;;;;;5010444;28;19948;-78
2023/12/25 09:46:41;;;;;;;5.35;2.67;;;;;;;;;;5030448;28;20403;-78
2023/12/25 09:49:07;;;;;;;6.10;2.60;;;;;;;;;;5015955;28;20030;-79
2023/12/25 09:51:33;;;;;;;5.05;2.50;;;;;;;;;;5009851;28;20083;-78
2023/12/25 09:53:58;;;;;;;3.35;2.20;;;;;;;;;;5029022;28;20030;-79
2023/12/25 09:56:24;;;;;;;;;;;;;;;;;;5000187;28;20032;-78
2023/12/25 09:58:49;;;;;;;3.85;2.72;;;;;;;;;;5028274;28;20398;-77
2023/12/25 10:01:15;;;;;;;5.22;3.22;;;;;;;;;;4999646;28;20037;-79
2023/12/25 10:03:41;;;;;;;4.03;2.40;;;;;;;;;;5019766;28;20037;-78
2023/12/25 10:06:06;;;;;;;;;;;;;;;;;;5019414;28;20048;-78
2023/12/25 10:08:31;;;;;;;5.10;2.65;;;;;;;;;;5037085;28;19909;-78
2023/12/25 10:10:57;;;;;;;5.28;2.72;;;;;;;;;;5019158;28;20080;-78
2023/12/25 10:13:22;;;;;;;;;;;;;;;;;;5032865;28;20033;-78
2023/12/25 10:15:48;;;;;;;5.63;2.90;;;;;;;;;;5033154;28;20724;-78
2023/12/25 10:18:13;;;;;;;;;;;;;;;;;;4993815;28;20357;-78
2023/12/25 10:20:38;;;;;;;5.70;3.25;;;;;;;;;;5032132;28;20007;-79
2023/12/25 10:23:13;;;;;;;4.43;2.83;;;;;;;;;;5028279;28;20048;-80
2023/12/25 10:25:42;;;;;;;3.88;2.67;;;;;;;;;;4993653;28;20064;-78
2023/12/25 10:28:11;;;;;;;4.50;2.90;;;;;;;;;;5019867;28;20026;-77
2023/12/25 10:30:37;;;;;;;4.60;2.97;;;;;;;;;;5003198;28;20044;-77
2023/12/25 10:33:13;;;;;;;3.78;2.80;;;;;;;;;;5028148;28;20029;-77
2023/12/25 10:35:38;;;;;;;5.75;3.45;;;;;;;;;;5019261;28;20476;-78
2023/12/25 10:38:05;;;;;;;4.72;2.70;;;;;;;;;;5019434;28;20038;-78
2023/12/25 10:40:31;;;;;;;5.70;3.10;;;;;;;;;;5019102;28;20044;-78
2023/12/25 10:42:57;;;;;;;5.10;3.20;;;;;;;;;;5019311;28;20025;-77
2023/12/25 10:45:22;;;;;;;;;;;;;;;;;;5002562;28;20035;-79
2023/12/25 10:47:48;;;;;;;4.82;2.75;;;;;;;;;;5035512;28;20003;-78
2023/12/25 10:50:14;;;;;;;5.18;3.00;;;;;;;;;;5018818;28;20151;-79
2023/12/25 10:52:39;;;;;;;3.80;2.33;;;;;;;;;;4999447;28;20040;-78
2023/12/25 10:55:05;;;;;;;6.50;3.22;;;;;;;;;;5022706;28;20040;-78
2023/12/25 10:57:31;;;;;;;;;;;;;;;;;;5001194;28;20116;-78
2023/12/25 10:59:57;;;;;;;4.00;2.60;;;;;;;;;;5033181;28;19913;-78
2023/12/25 11:02:22;;;;;;;5.30;2.60;;;;;;;;;;5005979;28;20084;-77
2023/12/25 11:04:48;;;;;;;5.07;2.97;;;;;;;;;;5021824;28;20028;-78
2023/12/25 11:07:16;;;;;;;;;;;;;;;;;;5019591;28;20084;-78
2023/12/25 11:09:42;;;;;;;4.55;2.47;;;;;;;;;;5028902;28;20396;-77
2023/12/25 11:12:07;;;;;;;5.45;2.75;;;;;;;;;;5026647;28;20045;-78
2023/12/25 11:14:33;;;;;;;4.68;2.72;;;;;;;;;;5019929;28;20091;-79
2023/12/25 11:16:58;;;;;;;5.15;2.75;;;;;;;;;;5002897;28;20083;-79
2023/12/25 11:19:24;;;;;;;4.25;2.45;;;;;;;;;;5032646;28;20515;-78
2023/12/25 11:21:50;;;;;;;3.67;2.53;;;;;;;;;;5025234;28;20030;-79
2023/12/25 11:24:15;;;;;;;;;;;;;;;;;;5005628;28;20037;-79
2023/12/25 11:26:41;;;;;;;5.38;3.00;;;;;;;;;;5033046;28;19908;-78
2023/12/25 11:29:07;;;;;;;4.10;2.70;;;;;;;;;;5013832;28;20029;-78
2023/12/25 11:31:42;;;;;;;4.35;2.65;;;;;;;;;;4999747;28;20030;-78
2023/12/25 11:34:23;;;;;;;5.38;3.42;;;;;;;;;;5031650;28;20530;-78
2023/12/25 11:36:51;;;;;;;4.25;2.83;;;;;;;;;;5015334;28;20033;-78
2023/12/25 11:39:17;;;;;;;3.88;2.42;;;;;;;;;;5015301;28;20028;-78
2023/12/25 11:41:44;;;;;;;4.75;2.92;;;;;;;;;;5032512;28;20037;-78
2023/12/25 11:44:09;;;;;;;4.13;2.35;;;;;;;;;;5032551;28;20032;-79
2023/12/25 11:46:35;;;;;;;3.75;2.40;;;;;;;;;;5014496;28;20029;-78
2023/12/25 11:49:00;;;;;;;5.47;2.55;;;;;;;;;;5014306;28;20064;-78
2023/12/25 11:51:26;;;;;;;4.68;2.40;;;;;;;;;;5024955;28;20041;-78
2023/12/25 11:53:53;;;;;;;3.83;2.38;;;;;;;;;;5014724;28;20510;-78
2023/12/25 11:56:18;;;;;;;3.53;2.35;;;;;;;;;;5014899;28;20497;-79
2023/12/25 11:58:44;;;;;;;3.90;2.53;;;;;;;;;;5011411;28;20084;-79
2023/12/25 12:01:09;;;;;;;;;;;;;;;;;;5028270;28;20898;-79
2023/12/25 12:03:35;;;;;;;3.25;2.38;;;;;;;;;;5005462;28;19999;-76
2023/12/25 12:06:00;;;;;;;5.88;2.67;;;;;;;;;;5020315;28;20033;-78
2023/12/25 12:08:27;;;;;;;4.60;2.80;;;;;;;;;;5003474;28;20041;-78
2023/12/25 12:10:53;;;;;;;4.43;2.42;;;;;;;;;;5003002;28;20096;-78
2023/12/25 12:13:18;;;;;;;5.90;3.38;;;;;;;;;;4989947;28;20069;-78
2023/12/25 12:15:44;;;;;;;4.40;2.92;;;;;;;;;;5009938;28;20121;-78
2023/12/25 12:18:09;;;;;;;4.32;2.80;;;;;;;;;;5030877;28;20033;-78
2023/12/25 12:20:35;;;;;;;4.22;2.95;;;;;;;;;;5026836;28;20120;-78
2023/12/25 12:23:00;;;;;;;;;;;;;;;;;;4995055;28;20057;-78
2023/12/25 12:25:28;;;;;;;4.90;2.92;;;;;;;;;;5027312;28;19921;-77
2023/12/25 12:27:56;;;;;;;5.00;2.95;;;;;;;;;;5014447;28;20021;-78
2023/12/25 12:30:21;;;;;;;4.50;3.20;;;;;;;;;;5012257;28;20496;-78
2023/12/25 12:32:47;;;;;;;;;;;;;;;;;;4996875;28;20060;-78
2023/12/25 12:35:12;;;;;;;4.88;3.15;;;;;;;;;;5013527;28;19913;-79
2023/12/25 12:37:38;;;;;;;;;;;;;;;;;;4997552;28;20553;-77
2023/12/25 12:40:03;;;;;;;4.63;2.90;;;;;;;;;;5031396;28;19917;-78
2023/12/25 12:42:35;;;;;;;4.70;2.90;;;;;;;;;;5014112;28;20378;-78
2023/12/25 12:45:01;;;;;;;4.55;3.25;;;;;;;;;;5013504;28;20176;-80
2023/12/25 12:47:26;;;;;;;4.30;2.88;;;;;;;;;;4997295;28;20530;-78
2023/12/25 12:49:52;;;;;;;;;;;;;;;;;;5014020;28;20025;-78
2023/12/25 12:52:17;;;;;;;4.75;3.08;;;;;;;;;;5010391;28;19917;-78
2023/12/25 12:54:43;;;;;;;5.32;3.03;;;;;;;;;;5027522;28;20188;-78
2023/12/25 12:57:09;;;;;;;;;;;;;;;;;;5014166;28;20025;-78
2023/12/25 12:59:34;;;;;;;8.43;3.20;;;;;;;;;;5029969;28;20399;-78
2023/12/25 13:02:00;;;;;;;5.35;3.00;;;;;;;;;;5013698;28;20033;-78
2023/12/25 13:04:25;;;;;;;5.70;3.20;;;;;;;;;;5013731;28;20045;-78
2023/12/25 13:06:51;;;;;;;;;;;;;;;;;;5030547;28;20026;-78
2023/12/25 13:09:17;;;;;;;6.30;3.40;;;;;;;;;;5031184;28;19927;-78
2023/12/25 13:11:42;;;;;;;;;;;;;;;;;;5013982;28;20412;-78
2023/12/25 13:14:08;;;;;;;7.25;5.00;;;;;;;;;;5030993;28;20012;-78
2023/12/25 13:16:33;;;;;;;8.05;5.70;;;;;;;;;;5013780;28;20035;-78
2023/12/25 13:18:58;;;;;;;;;;;;;;;;;;5012869;28;20045;-78
2023/12/25 13:21:24;;;;;;;6.68;4.00;;;;;;;;;;5009942;28;19967;-78
2023/12/25 13:23:49;;;;;;;6.80;4.00;;;;;;;;;;5034212;28;20029;-78
2023/12/25 13:26:15;;;;;;;;;;;;;;;;;;5013770;28;20362;-78
2023/12/25 13:28:41;;;;;;;6.70;3.53;;;;;;;;;;5026176;28;20330;-79
2023/12/25 13:31:06;;;;;;;;;;;;;;;;;;5013929;28;20021;-79
2023/12/25 13:33:32;;;;;;;6.78;3.30;;;;;;;;;;5025718;28;19938;-78
2023/12/25 13:35:57;;;;;;;4.57;3.22;;;;;;;;;;5007970;28;20520;-79
2023/12/25 13:38:23;;;;;;;;;;;;;;;;;;5026871;28;20042;-79
2023/12/25 13:40:50;;;;;;;4.72;3.40;;;;;;;;;;5022081;28;20011;-78
2023/12/25 13:43:15;;;;;;;8.10;4.55;;;;;;;;;;5026336;28;20408;-80
2023/12/25 13:45:41;;;;;;;6.63;4.03;;;;;;;;;;5009702;28;20026;-80
2023/12/25 13:48:06;;;;;;;6.03;3.45;;;;;;;;;;5012904;28;20033;-79
2023/12/25 13:50:32;;;;;;;;;;;;;;;;;;5027601;28;20034;-77
2023/12/25 13:52:57;;;;;;;5.72;3.38;;;;;;;;;;5030824;28;20003;-78
2023/12/25 13:55:22;;;;;;;5.35;3.58;;;;;;;;;;5007951;28;20487;-78
2023/12/25 13:57:49;;;;;;;6.93;3.70;;;;;;;;;;5030645;28;20112;-77
2023/12/25 14:00:15;;;;;;;5.25;3.60;;;;;;;;;;5025255;28;20034;-79
2023/12/25 14:02:40;;;;;;;5.53;3.50;;;;;;;;;;5030202;28;20507;-77
2023/12/25 14:05:06;;;;;;;5.45;3.85;;;;;;;;;;5003983;28;20029;-79
2023/12/25 14:07:31;;;;;;;;;;;;;;;;;;5008938;28;20033;-78
2023/12/25 14:09:57;;;;;;;5.28;3.38;;;;;;;;;;5030306;28;20044;-78
2023/12/25 14:12:22;;;;;;;5.03;3.28;;;;;;;;;;5012722;28;20084;-78
2023/12/25 14:14:48;;;;;;;;;;;;;;;;;;5009215;28;20076;-78
2023/12/25 14:17:13;;;;;;;4.70;3.10;;;;;;;;;;5029831;28;19913;-78
2023/12/25 14:19:38;;;;;;;;;;;;;;;;;;5012636;28;20116;-80
2023/12/25 14:22:04;;;;;;;5.28;3.33;;;;;;;;;;5012792;28;19917;-78
2023/12/25 14:24:35;;;;;;;6.93;3.53;;;;;;;;;;5005197;28;20084;-78
2023/12/25 14:27:01;;;;;;;5.15;3.33;;;;;;;;;;4993448;28;20041;-77
2023/12/25 14:29:26;;;;;;;4.60;2.92;;;;;;;;;;5026882;28;20034;-78
2023/12/25 14:31:52;;;;;;;5.88;3.20;;;;;;;;;;5013316;28;20117;-77
2023/12/25 14:34:17;;;;;;;4.60;3.17;;;;;;;;;;5034015;28;20108;-78
2023/12/25 14:36:43;;;;;;;6.47;3.53;;;;;;;;;;5033509;28;20042;-78
2023/12/25 14:39:08;;;;;;;5.85;3.65;;;;;;;;;;5033500;28;20117;-79
2023/12/25 14:41:34;;;;;;;4.78;3.20;;;;;;;;;;5015525;28;20037;-79
2023/12/25 14:43:59;;;;;;;;;;;;;;;;;;5015426;28;20495;-76
2023/12/25 14:46:25;;;;;;;6.93;3.95;;;;;;;;;;5032500;28;19940;-77
2023/12/25 14:48:51;;;;;;;;;;;;;;;;;;4997682;28;20025;-77
2023/12/25 14:51:17;;;;;;;6.40;3.60;;;;;;;;;;5014695;28;20012;-77
2023/12/25 14:53:42;;;;;;;;;;;;;;;;;;5015030;28;20130;-79
2023/12/25 14:56:08;;;;;;;5.10;3.35;;;;;;;;;;5033242;28;20003;-77
2023/12/25 14:58:34;;;;;;;6.13;3.83;;;;;;;;;;5015149;28;20026;-78
2023/12/25 15:01:00;;;;;;;5.88;3.90;;;;;;;;;;5011582;28;20107;-78
2023/12/25 15:03:25;;;;;;;;;;;;;;;;;;5014308;28;20053;-77
2023/12/25 15:05:51;;;;;;;6.55;4.43;;;;;;;;;;5033410;28;19920;-77
2023/12/25 15:08:16;;;;;;;;;;;;;;;;;;5032014;28;20128;-78
2023/12/25 15:10:42;;;;;;;8.52;5.00;;;;;;;;;;5032966;28;19925;-78
2023/12/25 15:13:07;;;;;;;9.60;5.00;;;;;;;;;;5031933;28;20044;-78
2023/12/25 15:15:33;;;;;;;7.20;4.35;;;;;;;;;;5030474;28;20034;-78